sensor_id;sensor_type;location;lat;lon;timestamp;pressure;altitude;pressure_sealevel;temperature;humidity
43814;BME280;29669;55.706;37.656;2023-02-26T00:01:31;97632.22;;;3.44;nan
43814;BME280;29669;55.706;37.656;2023-02-26T00:04:01;97627.53;;;3.48;nan
43814;BME280;29669;55.706;37.656;2023-02-26T00:06:32;97625.13;;;3.46;nan
43814;BME280;29669;55.706;37.656;2023-02-26T00:09:00;97624.34;;;3.46;nan
43814;BME280;29669;55.706;37.656;2023-02-26T00:11:28;97611.53;;;3.46;nan
43814;BME280;29669;55.706;37.656;2023-02-26T00:13:56;97607.69;;;3.42;nan
43814;BME280;29669;55.706;37.656;2023-02-26T00:16:33;97601.75;;;3.41;nan
43814;BME280;29669;55.706;37.656;2023-02-26T00:19:03;97596.53;;;3.35;nan
43814;BME280;29669;55.706;37.656;2023-02-26T00:21:34;97579.13;;;3.22;nan
43814;BME280;29669;55.706;37.656;2023-02-26T00:24:02;97576.91;;;3.19;nan
43814;BME280;29669;55.706;37.656;2023-02-26T00:26:33;97569.91;;;3.13;nan
43814;BME280;29669;55.706;37.656;2023-02-26T00:29:02;97553.31;;;3.01;nan
43814;BME280;29669;55.706;37.656;2023-02-26T00:31:30;97551.44;;;2.95;nan
43814;BME280;29669;55.706;37.656;2023-02-26T00:33:59;97552.41;;;2.94;nan
43814;BME280;29669;55.706;37.656;2023-02-26T00:39:46;97531.16;;;2.85;nan
43814;BME280;29669;55.706;37.656;2023-02-26T00:42:18;97516.91;;;2.83;nan
43814;BME280;29669;55.706;37.656;2023-02-26T00:44:47;97514.69;;;2.80;nan
43814;BME280;29669;55.706;37.656;2023-02-26T00:47:51;97500.75;;;2.82;nan
43814;BME280;29669;55.706;37.656;2023-02-26T00:56:51;97489.78;;;2.35;nan
43814;BME280;29669;55.706;37.656;2023-02-26T00:59:20;97489.28;;;2.40;nan
43814;BME280;29669;55.706;37.656;2023-02-26T01:01:49;97500.63;;;2.45;nan
43814;BME280;29669;55.706;37.656;2023-02-26T01:04:20;97507.00;;;2.49;nan
43814;BME280;29669;55.706;37.656;2023-02-26T01:07:14;97514.19;;;2.54;nan
43814;BME280;29669;55.706;37.656;2023-02-26T01:09:51;97516.09;;;2.52;nan
43814;BME280;29669;55.706;37.656;2023-02-26T01:12:22;97502.09;;;2.40;nan
43814;BME280;29669;55.706;37.656;2023-02-26T01:14:51;97497.44;;;2.43;nan
43814;BME280;29669;55.706;37.656;2023-02-26T01:17:30;97492.31;;;2.43;nan
43814;BME280;29669;55.706;37.656;2023-02-26T01:20:13;97487.31;;;2.50;nan
43814;BME280;29669;55.706;37.656;2023-02-26T01:23:26;97483.81;;;2.43;nan
43814;BME280;29669;55.706;37.656;2023-02-26T01:25:54;97474.13;;;2.38;nan
43814;BME280;29669;55.706;37.656;2023-02-26T01:28:26;97471.03;;;2.43;nan
43814;BME280;29669;55.706;37.656;2023-02-26T01:31:01;97476.69;;;2.30;nan
43814;BME280;29669;55.706;37.656;2023-02-26T01:33:43;97467.13;;;2.24;nan
43814;BME280;29669;55.706;37.656;2023-02-26T01:36:19;97464.09;;;2.21;nan
43814;BME280;29669;55.706;37.656;2023-02-26T01:39:13;97453.59;;;2.16;nan
43814;BME280;29669;55.706;37.656;2023-02-26T01:41:57;97456.06;;;2.24;nan
43814;BME280;29669;55.706;37.656;2023-02-26T01:47:18;97442.44;;;2.31;nan
43814;BME280;29669;55.706;37.656;2023-02-26T01:49:47;97442.03;;;2.20;nan
43814;BME280;29669;55.706;37.656;2023-02-26T01:55:00;97439.59;;;2.26;nan
43814;BME280;29669;55.706;37.656;2023-02-26T01:57:29;97430.81;;;2.29;nan
43814;BME280;29669;55.706;37.656;2023-02-26T01:59:56;97430.50;;;2.24;nan
43814;BME280;29669;55.706;37.656;2023-02-26T02:02:24;97420.59;;;2.21;nan
43814;BME280;29669;55.706;37.656;2023-02-26T02:04:52;97410.53;;;2.19;nan
43814;BME280;29669;55.706;37.656;2023-02-26T02:07:20;97409.44;;;2.14;nan
43814;BME280;29669;55.706;37.656;2023-02-26T02:09:47;97421.25;;;2.15;nan
43814;BME280;29669;55.706;37.656;2023-02-26T02:12:34;97418.34;;;2.18;nan
43814;BME280;29669;55.706;37.656;2023-02-26T02:15:25;97409.09;;;2.17;nan
43814;BME280;29669;55.706;37.656;2023-02-26T02:18:12;97411.81;;;2.23;nan
43814;BME280;29669;55.706;37.656;2023-02-26T02:21:08;97413.03;;;2.27;nan
43814;BME280;29669;55.706;37.656;2023-02-26T02:24:10;97411.28;;;2.28;nan
43814;BME280;29669;55.706;37.656;2023-02-26T02:26:51;97413.53;;;2.31;nan
43814;BME280;29669;55.706;37.656;2023-02-26T02:29:30;97409.34;;;2.30;nan
43814;BME280;29669;55.706;37.656;2023-02-26T02:32:03;97415.09;;;2.32;nan
43814;BME280;29669;55.706;37.656;2023-02-26T02:34:39;97411.91;;;2.30;nan
43814;BME280;29669;55.706;37.656;2023-02-26T02:39:49;97402.19;;;1.95;nan
43814;BME280;29669;55.706;37.656;2023-02-26T02:42:24;97401.41;;;1.86;nan
43814;BME280;29669;55.706;37.656;2023-02-26T02:45:02;97399.22;;;1.75;nan
43814;BME280;29669;55.706;37.656;2023-02-26T02:47:34;97392.19;;;1.69;nan
43814;BME280;29669;55.706;37.656;2023-02-26T02:50:07;97392.00;;;1.70;nan
43814;BME280;29669;55.706;37.656;2023-02-26T02:52:49;97379.56;;;1.67;nan
43814;BME280;29669;55.706;37.656;2023-02-26T02:55:24;97377.50;;;1.63;nan
43814;BME280;29669;55.706;37.656;2023-02-26T02:58:07;97370.31;;;1.66;nan
43814;BME280;29669;55.706;37.656;2023-02-26T03:00:41;97376.38;;;1.65;nan
43814;BME280;29669;55.706;37.656;2023-02-26T03:05:59;97384.97;;;1.72;nan
43814;BME280;29669;55.706;37.656;2023-02-26T03:08:30;97379.84;;;1.80;nan
43814;BME280;29669;55.706;37.656;2023-02-26T03:11:00;97364.63;;;1.87;nan
43814;BME280;29669;55.706;37.656;2023-02-26T03:13:28;97368.28;;;1.92;nan
43814;BME280;29669;55.706;37.656;2023-02-26T03:21:28;97366.91;;;2.13;nan
43814;BME280;29669;55.706;37.656;2023-02-26T03:26:41;97361.75;;;2.21;nan
43814;BME280;29669;55.706;37.656;2023-02-26T03:32:18;97366.81;;;2.29;nan
43814;BME280;29669;55.706;37.656;2023-02-26T03:35:14;97361.47;;;2.38;nan
43814;BME280;29669;55.706;37.656;2023-02-26T03:37:46;97363.88;;;2.40;nan
43814;BME280;29669;55.706;37.656;2023-02-26T03:40:22;97365.13;;;2.44;nan
43814;BME280;29669;55.706;37.656;2023-02-26T03:43:14;97366.38;;;2.48;nan
43814;BME280;29669;55.706;37.656;2023-02-26T03:45:47;97369.09;;;2.46;nan
43814;BME280;29669;55.706;37.656;2023-02-26T03:48:19;97368.94;;;2.48;nan
43814;BME280;29669;55.706;37.656;2023-02-26T03:50:50;97374.66;;;2.50;nan
43814;BME280;29669;55.706;37.656;2023-02-26T03:53:47;97372.28;;;2.48;nan
43814;BME280;29669;55.706;37.656;2023-02-26T03:56:30;97383.31;;;2.49;nan
43814;BME280;29669;55.706;37.656;2023-02-26T03:59:02;97377.22;;;2.50;nan
43814;BME280;29669;55.706;37.656;2023-02-26T04:02:07;97381.75;;;2.48;nan
43814;BME280;29669;55.706;37.656;2023-02-26T04:04:46;97385.88;;;2.49;nan
43814;BME280;29669;55.706;37.656;2023-02-26T04:07:16;97376.63;;;2.48;nan
43814;BME280;29669;55.706;37.656;2023-02-26T04:09:46;97390.19;;;2.48;nan
43814;BME280;29669;55.706;37.656;2023-02-26T04:12:15;97389.25;;;2.49;nan
43814;BME280;29669;55.706;37.656;2023-02-26T04:14:48;97394.81;;;2.53;nan
43814;BME280;29669;55.706;37.656;2023-02-26T04:17:16;97401.50;;;2.54;nan
43814;BME280;29669;55.706;37.656;2023-02-26T04:19:45;97401.38;;;2.55;nan
43814;BME280;29669;55.706;37.656;2023-02-26T04:22:13;97412.25;;;2.57;nan
43814;BME280;29669;55.706;37.656;2023-02-26T04:24:40;97414.94;;;2.56;nan
43814;BME280;29669;55.706;37.656;2023-02-26T04:27:08;97410.97;;;2.53;nan
43814;BME280;29669;55.706;37.656;2023-02-26T04:29:36;97413.38;;;2.55;nan
43814;BME280;29669;55.706;37.656;2023-02-26T04:32:04;97416.22;;;2.60;nan
43814;BME280;29669;55.706;37.656;2023-02-26T04:34:31;97424.19;;;2.65;nan
43814;BME280;29669;55.706;37.656;2023-02-26T04:36:59;97431.69;;;2.66;nan
43814;BME280;29669;55.706;37.656;2023-02-26T04:39:27;97434.09;;;2.68;nan
43814;BME280;29669;55.706;37.656;2023-02-26T04:41:56;97436.28;;;2.71;nan
43814;BME280;29669;55.706;37.656;2023-02-26T04:44:24;97437.56;;;2.75;nan
43814;BME280;29669;55.706;37.656;2023-02-26T04:46:52;97449.06;;;2.79;nan
43814;BME280;29669;55.706;37.656;2023-02-26T04:49:20;97453.69;;;2.83;nan
43814;BME280;29669;55.706;37.656;2023-02-26T04:51:47;97461.00;;;2.86;nan
43814;BME280;29669;55.706;37.656;2023-02-26T04:54:16;97453.78;;;2.90;nan
43814;BME280;29669;55.706;37.656;2023-02-26T04:56:43;97469.59;;;2.94;nan
43814;BME280;29669;55.706;37.656;2023-02-26T04:59:11;97472.97;;;2.94;nan
43814;BME280;29669;55.706;37.656;2023-02-26T05:01:40;97476.78;;;2.98;nan
43814;BME280;29669;55.706;37.656;2023-02-26T05:04:08;97482.53;;;3.00;nan
43814;BME280;29669;55.706;37.656;2023-02-26T05:06:36;97490.22;;;3.00;nan
43814;BME280;29669;55.706;37.656;2023-02-26T05:09:04;97501.44;;;2.99;nan
43814;BME280;29669;55.706;37.656;2023-02-26T05:11:32;97498.88;;;2.99;nan
43814;BME280;29669;55.706;37.656;2023-02-26T05:13:59;97494.03;;;3.04;nan
43814;BME280;29669;55.706;37.656;2023-02-26T05:16:28;97505.09;;;3.05;nan
43814;BME280;29669;55.706;37.656;2023-02-26T05:18:56;97511.69;;;2.99;nan
43814;BME280;29669;55.706;37.656;2023-02-26T05:21:24;97522.56;;;3.01;nan
43814;BME280;29669;55.706;37.656;2023-02-26T05:23:52;97517.78;;;2.98;nan
43814;BME280;29669;55.706;37.656;2023-02-26T05:26:20;97528.31;;;3.03;nan
43814;BME280;29669;55.706;37.656;2023-02-26T05:28:52;97533.44;;;3.03;nan
43814;BME280;29669;55.706;37.656;2023-02-26T05:31:20;97539.00;;;3.07;nan
43814;BME280;29669;55.706;37.656;2023-02-26T05:33:48;97538.69;;;3.10;nan
43814;BME280;29669;55.706;37.656;2023-02-26T05:36:18;97536.59;;;3.13;nan
43814;BME280;29669;55.706;37.656;2023-02-26T05:38:50;97553.22;;;3.17;nan
43814;BME280;29669;55.706;37.656;2023-02-26T05:41:22;97550.84;;;3.16;nan
43814;BME280;29669;55.706;37.656;2023-02-26T05:44:01;97559.25;;;3.24;nan
43814;BME280;29669;55.706;37.656;2023-02-26T05:46:36;97567.41;;;3.28;nan
43814;BME280;29669;55.706;37.656;2023-02-26T05:49:09;97573.06;;;3.23;nan
43814;BME280;29669;55.706;37.656;2023-02-26T05:51:45;97583.00;;;3.18;nan
43814;BME280;29669;55.706;37.656;2023-02-26T05:54:16;97577.88;;;3.18;nan
43814;BME280;29669;55.706;37.656;2023-02-26T05:56:51;97584.88;;;3.24;nan
43814;BME280;29669;55.706;37.656;2023-02-26T05:59:24;97573.69;;;3.25;nan
43814;BME280;29669;55.706;37.656;2023-02-26T06:02:04;97595.59;;;3.28;nan
43814;BME280;29669;55.706;37.656;2023-02-26T06:04:46;97591.09;;;3.30;nan
43814;BME280;29669;55.706;37.656;2023-02-26T06:07:29;97589.16;;;3.32;nan
43814;BME280;29669;55.706;37.656;2023-02-26T06:10:16;97600.19;;;3.40;nan
43814;BME280;29669;55.706;37.656;2023-02-26T06:12:52;97602.56;;;3.42;nan
43814;BME280;29669;55.706;37.656;2023-02-26T06:15:22;97602.03;;;3.46;nan
43814;BME280;29669;55.706;37.656;2023-02-26T06:17:51;97597.22;;;3.51;nan
43814;BME280;29669;55.706;37.656;2023-02-26T06:20:19;97612.38;;;3.61;nan
43814;BME280;29669;55.706;37.656;2023-02-26T06:22:47;97607.41;;;3.59;nan
43814;BME280;29669;55.706;37.656;2023-02-26T06:25:15;97612.56;;;3.59;nan
43814;BME280;29669;55.706;37.656;2023-02-26T06:27:43;97613.50;;;3.58;nan
43814;BME280;29669;55.706;37.656;2023-02-26T06:30:11;97612.38;;;3.61;nan
43814;BME280;29669;55.706;37.656;2023-02-26T06:32:39;97626.59;;;3.63;nan
43814;BME280;29669;55.706;37.656;2023-02-26T06:35:07;97628.78;;;3.74;nan
43814;BME280;29669;55.706;37.656;2023-02-26T06:37:35;97629.34;;;3.84;nan
43814;BME280;29669;55.706;37.656;2023-02-26T06:40:03;97633.34;;;3.87;nan
43814;BME280;29669;55.706;37.656;2023-02-26T06:42:31;97633.59;;;3.92;nan
43814;BME280;29669;55.706;37.656;2023-02-26T06:44:58;97634.34;;;4.01;nan
43814;BME280;29669;55.706;37.656;2023-02-26T06:47:26;97633.66;;;4.07;nan
43814;BME280;29669;55.706;37.656;2023-02-26T06:49:54;97654.91;;;4.15;nan
43814;BME280;29669;55.706;37.656;2023-02-26T06:52:22;97651.22;;;4.18;nan
43814;BME280;29669;55.706;37.656;2023-02-26T06:54:49;97658.56;;;4.21;nan
43814;BME280;29669;55.706;37.656;2023-02-26T06:57:17;97671.38;;;4.21;nan
43814;BME280;29669;55.706;37.656;2023-02-26T06:59:45;97662.63;;;4.15;nan
43814;BME280;29669;55.706;37.656;2023-02-26T07:02:18;97662.66;;;4.07;nan
43814;BME280;29669;55.706;37.656;2023-02-26T07:04:47;97676.03;;;4.03;nan
43814;BME280;29669;55.706;37.656;2023-02-26T07:07:15;97681.09;;;4.11;nan
43814;BME280;29669;55.706;37.656;2023-02-26T07:09:43;97678.47;;;4.19;nan
43814;BME280;29669;55.706;37.656;2023-02-26T07:12:12;97689.72;;;4.18;nan
43814;BME280;29669;55.706;37.656;2023-02-26T07:14:40;97696.44;;;4.19;nan
43814;BME280;29669;55.706;37.656;2023-02-26T07:17:09;97688.09;;;4.17;nan
43814;BME280;29669;55.706;37.656;2023-02-26T07:19:50;97690.69;;;4.17;nan
43814;BME280;29669;55.706;37.656;2023-02-26T07:22:19;97691.59;;;4.24;nan
43814;BME280;29669;55.706;37.656;2023-02-26T07:24:49;97682.66;;;4.34;nan
43814;BME280;29669;55.706;37.656;2023-02-26T07:27:17;97698.78;;;4.43;nan
43814;BME280;29669;55.706;37.656;2023-02-26T07:29:48;97702.53;;;4.40;nan
43814;BME280;29669;55.706;37.656;2023-02-26T07:32:15;97700.59;;;4.42;nan
43814;BME280;29669;55.706;37.656;2023-02-26T07:34:43;97701.59;;;4.56;nan
43814;BME280;29669;55.706;37.656;2023-02-26T07:37:11;97708.56;;;4.62;nan
43814;BME280;29669;55.706;37.656;2023-02-26T07:39:39;97699.72;;;4.79;nan
43814;BME280;29669;55.706;37.656;2023-02-26T07:42:07;97708.06;;;4.81;nan
43814;BME280;29669;55.706;37.656;2023-02-26T07:44:35;97707.72;;;4.84;nan
43814;BME280;29669;55.706;37.656;2023-02-26T07:47:03;97711.53;;;4.88;nan
43814;BME280;29669;55.706;37.656;2023-02-26T07:49:31;97713.84;;;4.98;nan
43814;BME280;29669;55.706;37.656;2023-02-26T07:52:00;97721.25;;;5.07;nan
43814;BME280;29669;55.706;37.656;2023-02-26T07:54:28;97725.69;;;5.13;nan
43814;BME280;29669;55.706;37.656;2023-02-26T07:56:56;97719.16;;;5.11;nan
43814;BME280;29669;55.706;37.656;2023-02-26T07:59:24;97721.25;;;5.07;nan
43814;BME280;29669;55.706;37.656;2023-02-26T08:01:52;97729.16;;;5.06;nan
43814;BME280;29669;55.706;37.656;2023-02-26T08:04:20;97732.00;;;5.11;nan
43814;BME280;29669;55.706;37.656;2023-02-26T08:06:50;97733.94;;;5.23;nan
43814;BME280;29669;55.706;37.656;2023-02-26T08:09:21;97744.06;;;5.25;nan
43814;BME280;29669;55.706;37.656;2023-02-26T08:11:49;97736.34;;;5.25;nan
43814;BME280;29669;55.706;37.656;2023-02-26T08:14:16;97750.25;;;5.30;nan
43814;BME280;29669;55.706;37.656;2023-02-26T08:16:44;97746.09;;;5.29;nan
43814;BME280;29669;55.706;37.656;2023-02-26T08:19:12;97747.50;;;5.32;nan
43814;BME280;29669;55.706;37.656;2023-02-26T08:21:39;97744.84;;;5.40;nan
43814;BME280;29669;55.706;37.656;2023-02-26T08:24:10;97742.25;;;5.54;nan
43814;BME280;29669;55.706;37.656;2023-02-26T08:26:37;97745.47;;;5.78;nan
43814;BME280;29669;55.706;37.656;2023-02-26T08:29:05;97749.34;;;6.03;nan
43814;BME280;29669;55.706;37.656;2023-02-26T08:31:33;97753.19;;;6.13;nan
43814;BME280;29669;55.706;37.656;2023-02-26T08:34:01;97757.44;;;6.21;nan
43814;BME280;29669;55.706;37.656;2023-02-26T08:36:30;97775.84;;;6.18;nan
43814;BME280;29669;55.706;37.656;2023-02-26T08:38:58;97772.44;;;6.17;nan
43814;BME280;29669;55.706;37.656;2023-02-26T08:41:26;97782.75;;;6.17;nan
43814;BME280;29669;55.706;37.656;2023-02-26T08:43:59;97783.28;;;5.92;nan
43814;BME280;29669;55.706;37.656;2023-02-26T08:51:23;97791.66;;;6.15;nan
43814;BME280;29669;55.706;37.656;2023-02-26T08:53:51;97817.66;;;6.20;nan
43814;BME280;29669;55.706;37.656;2023-02-26T08:56:19;97805.91;;;6.32;nan
43814;BME280;29669;55.706;37.656;2023-02-26T08:58:47;97808.00;;;6.64;nan
43814;BME280;29669;55.706;37.656;2023-02-26T09:01:15;97815.72;;;6.64;nan
43814;BME280;29669;55.706;37.656;2023-02-26T09:03:43;97830.16;;;6.37;nan
43814;BME280;29669;55.706;37.656;2023-02-26T09:06:10;97845.25;;;6.05;nan
43814;BME280;29669;55.706;37.656;2023-02-26T09:08:38;97842.16;;;5.65;nan
43814;BME280;29669;55.706;37.656;2023-02-26T09:11:05;97831.84;;;5.36;nan
43814;BME280;29669;55.706;37.656;2023-02-26T09:13:33;97850.13;;;5.27;nan
43814;BME280;29669;55.706;37.656;2023-02-26T09:16:01;97857.03;;;5.12;nan
43814;BME280;29669;55.706;37.656;2023-02-26T09:18:29;97857.97;;;4.96;nan
43814;BME280;29669;55.706;37.656;2023-02-26T09:20:56;97854.28;;;4.76;nan
43814;BME280;29669;55.706;37.656;2023-02-26T09:23:24;97874.25;;;4.66;nan
43814;BME280;29669;55.706;37.656;2023-02-26T09:28:23;97873.63;;;4.64;nan
43814;BME280;29669;55.706;37.656;2023-02-26T09:30:53;97868.50;;;4.64;nan
43814;BME280;29669;55.706;37.656;2023-02-26T09:33:22;97876.97;;;4.72;nan
43814;BME280;29669;55.706;37.656;2023-02-26T09:35:50;97879.13;;;4.84;nan
43814;BME280;29669;55.706;37.656;2023-02-26T09:38:19;97867.63;;;4.94;nan
43814;BME280;29669;55.706;37.656;2023-02-26T09:41:09;97874.84;;;5.13;nan
43814;BME280;29669;55.706;37.656;2023-02-26T09:44:08;97877.72;;;5.18;nan
43814;BME280;29669;55.706;37.656;2023-02-26T09:46:44;97879.44;;;5.03;nan
43814;BME280;29669;55.706;37.656;2023-02-26T09:51:41;97887.09;;;4.89;nan
43814;BME280;29669;55.706;37.656;2023-02-26T09:56:43;97891.72;;;4.93;nan
43814;BME280;29669;55.706;37.656;2023-02-26T09:59:11;97895.34;;;4.84;nan
43814;BME280;29669;55.706;37.656;2023-02-26T10:01:47;97895.66;;;4.81;nan
43814;BME280;29669;55.706;37.656;2023-02-26T10:07:54;97897.09;;;4.84;nan
43814;BME280;29669;55.706;37.656;2023-02-26T10:13:04;97920.78;;;5.16;nan
43814;BME280;29669;55.706;37.656;2023-02-26T10:15:41;97921.00;;;5.29;nan
43814;BME280;29669;55.706;37.656;2023-02-26T10:18:15;97909.28;;;5.27;nan
43814;BME280;29669;55.706;37.656;2023-02-26T10:23:55;97923.72;;;5.65;nan
43814;BME280;29669;55.706;37.656;2023-02-26T10:26:44;97932.97;;;5.89;nan
43814;BME280;29669;55.706;37.656;2023-02-26T10:29:25;97941.53;;;5.81;nan
43814;BME280;29669;55.706;37.656;2023-02-26T10:32:01;97935.59;;;5.66;nan
43814;BME280;29669;55.706;37.656;2023-02-26T10:34:38;97933.91;;;5.58;nan
43814;BME280;29669;55.706;37.656;2023-02-26T10:40:00;97948.09;;;5.17;nan
43814;BME280;29669;55.706;37.656;2023-02-26T10:42:43;97944.19;;;5.07;nan
43814;BME280;29669;55.706;37.656;2023-02-26T10:50:23;97948.00;;;5.62;nan
43814;BME280;29669;55.706;37.656;2023-02-26T10:52:54;97947.75;;;5.72;nan
43814;BME280;29669;55.706;37.656;2023-02-26T10:55:38;97950.88;;;5.67;nan
43814;BME280;29669;55.706;37.656;2023-02-26T11:03:16;97953.94;;;5.86;nan
43814;BME280;29669;55.706;37.656;2023-02-26T11:05:45;97947.97;;;5.85;nan
43814;BME280;29669;55.706;37.656;2023-02-26T11:10:53;97949.81;;;5.77;nan
43814;BME280;29669;55.706;37.656;2023-02-26T11:13:24;97959.56;;;5.66;nan
43814;BME280;29669;55.706;37.656;2023-02-26T11:15:55;97947.00;;;5.86;nan
43814;BME280;29669;55.706;37.656;2023-02-26T11:18:27;97957.13;;;6.02;nan
43814;BME280;29669;55.706;37.656;2023-02-26T11:20:58;97954.19;;;6.20;nan
43814;BME280;29669;55.706;37.656;2023-02-26T11:23:29;97967.75;;;6.43;nan
43814;BME280;29669;55.706;37.656;2023-02-26T11:26:05;97969.22;;;6.66;nan
43814;BME280;29669;55.706;37.656;2023-02-26T11:28:45;97973.22;;;6.69;nan
43814;BME280;29669;55.706;37.656;2023-02-26T11:31:18;97972.69;;;6.59;nan
43814;BME280;29669;55.706;37.656;2023-02-26T11:34:12;97974.94;;;6.62;nan
43814;BME280;29669;55.706;37.656;2023-02-26T11:36:41;97975.53;;;6.64;nan
43814;BME280;29669;55.706;37.656;2023-02-26T11:39:17;97984.19;;;6.56;nan
43814;BME280;29669;55.706;37.656;2023-02-26T11:41:48;97990.06;;;6.50;nan
43814;BME280;29669;55.706;37.656;2023-02-26T11:44:20;97962.22;;;6.46;nan
43814;BME280;29669;55.706;37.656;2023-02-26T11:46:54;97973.63;;;6.37;nan
43814;BME280;29669;55.706;37.656;2023-02-26T11:49:25;97974.09;;;6.26;nan
43814;BME280;29669;55.706;37.656;2023-02-26T11:55:02;97966.81;;;6.15;nan
43814;BME280;29669;55.706;37.656;2023-02-26T11:57:32;97977.66;;;6.10;nan
43814;BME280;29669;55.706;37.656;2023-02-26T12:00:00;97980.41;;;6.09;nan
43814;BME280;29669;55.706;37.656;2023-02-26T12:02:45;97947.28;;;6.20;nan
43814;BME280;29669;55.706;37.656;2023-02-26T12:05:15;97973.53;;;6.30;nan
43814;BME280;29669;55.706;37.656;2023-02-26T12:07:44;97975.22;;;6.38;nan
43814;BME280;29669;55.706;37.656;2023-02-26T12:10:16;97986.56;;;6.58;nan
43814;BME280;29669;55.706;37.656;2023-02-26T12:13:05;97975.53;;;6.64;nan
43814;BME280;29669;55.706;37.656;2023-02-26T12:15:57;97980.22;;;6.75;nan
43814;BME280;29669;55.706;37.656;2023-02-26T12:33:05;98026.69;;;4.97;nan
43814;BME280;29669;55.706;37.656;2023-02-26T12:41:23;98015.31;;;4.53;nan
43814;BME280;29669;55.706;37.656;2023-02-26T12:43:55;98041.03;;;4.45;nan
43814;BME280;29669;55.706;37.656;2023-02-26T12:46:42;98039.75;;;4.49;nan
43814;BME280;29669;55.706;37.656;2023-02-26T12:57:21;98066.84;;;3.97;nan
43814;BME280;29669;55.706;37.656;2023-02-26T13:03:17;98059.16;;;3.89;nan
43814;BME280;29669;55.706;37.656;2023-02-26T13:22:55;98108.41;;;3.68;nan
43814;BME280;29669;55.706;37.656;2023-02-26T13:28:46;98106.63;;;3.52;nan
43814;BME280;29669;55.706;37.656;2023-02-26T13:31:16;98115.47;;;3.50;nan
43814;BME280;29669;55.706;37.656;2023-02-26T13:33:47;98125.53;;;3.43;nan
43814;BME280;29669;55.706;37.656;2023-02-26T13:36:19;98140.56;;;3.30;nan
43814;BME280;29669;55.706;37.656;2023-02-26T13:41:41;98120.34;;;3.11;nan
43814;BME280;29669;55.706;37.656;2023-02-26T13:44:46;98128.81;;;3.12;nan
43814;BME280;29669;55.706;37.656;2023-02-26T13:50:04;98142.72;;;3.01;nan
43814;BME280;29669;55.706;37.656;2023-02-26T13:55:46;98146.03;;;2.85;nan
43814;BME280;29669;55.706;37.656;2023-02-26T14:01:08;98151.63;;;2.81;nan
43814;BME280;29669;55.706;37.656;2023-02-26T14:03:49;98159.75;;;2.76;nan
43814;BME280;29669;55.706;37.656;2023-02-26T14:06:48;98174.13;;;2.69;nan
43814;BME280;29669;55.706;37.656;2023-02-26T14:22:33;98219.25;;;2.19;nan
43814;BME280;29669;55.706;37.656;2023-02-26T14:27:43;98219.34;;;2.10;nan
43814;BME280;29669;55.706;37.656;2023-02-26T14:30:28;98230.50;;;2.09;nan
43814;BME280;29669;55.706;37.656;2023-02-26T14:35:51;98219.09;;;2.03;nan
43814;BME280;29669;55.706;37.656;2023-02-26T14:38:26;98231.09;;;2.03;nan
43814;BME280;29669;55.706;37.656;2023-02-26T14:41:04;98246.16;;;2.06;nan
43814;BME280;29669;55.706;37.656;2023-02-26T14:43:49;98235.41;;;2.02;nan
43814;BME280;29669;55.706;37.656;2023-02-26T14:46:25;98228.97;;;1.98;nan
43814;BME280;29669;55.706;37.656;2023-02-26T14:49:03;98239.38;;;1.97;nan
43814;BME280;29669;55.706;37.656;2023-02-26T14:55:49;98252.75;;;1.90;nan
43814;BME280;29669;55.706;37.656;2023-02-26T15:09:23;98288.81;;;1.70;nan
43814;BME280;29669;55.706;37.656;2023-02-26T15:12:13;98295.38;;;1.72;nan
43814;BME280;29669;55.706;37.656;2023-02-26T15:15:05;98307.66;;;1.69;nan
43814;BME280;29669;55.706;37.656;2023-02-26T15:26:03;98325.41;;;1.43;nan
43814;BME280;29669;55.706;37.656;2023-02-26T15:28:39;98345.34;;;1.40;nan
43814;BME280;29669;55.706;37.656;2023-02-26T15:31:10;98345.59;;;1.37;nan
43814;BME280;29669;55.706;37.656;2023-02-26T15:33:42;98348.81;;;1.39;nan
43814;BME280;29669;55.706;37.656;2023-02-26T15:36:16;98348.31;;;1.35;nan
43814;BME280;29669;55.706;37.656;2023-02-26T15:38:56;98347.78;;;1.32;nan
43814;BME280;29669;55.706;37.656;2023-02-26T15:41:29;98357.34;;;1.30;nan
43814;BME280;29669;55.706;37.656;2023-02-26T15:44:07;98360.72;;;1.30;nan
43814;BME280;29669;55.706;37.656;2023-02-26T15:46:45;98366.59;;;1.31;nan
43814;BME280;29669;55.706;37.656;2023-02-26T15:49:40;98357.75;;;1.25;nan
43814;BME280;29669;55.706;37.656;2023-02-26T15:52:21;98374.56;;;1.18;nan
43814;BME280;29669;55.706;37.656;2023-02-26T15:54:53;98376.09;;;1.11;nan
43814;BME280;29669;55.706;37.656;2023-02-26T15:57:25;98377.97;;;1.09;nan
43814;BME280;29669;55.706;37.656;2023-02-26T16:00:20;98401.34;;;1.05;nan
43814;BME280;29669;55.706;37.656;2023-02-26T16:02:55;98385.50;;;1.01;nan
43814;BME280;29669;55.706;37.656;2023-02-26T16:05:26;98385.50;;;1.01;nan
43814;BME280;29669;55.706;37.656;2023-02-26T16:08:01;98393.31;;;1.00;nan
43814;BME280;29669;55.706;37.656;2023-02-26T16:10:41;98392.34;;;1.01;nan
43814;BME280;29669;55.706;37.656;2023-02-26T16:13:14;98400.81;;;1.01;nan
43814;BME280;29669;55.706;37.656;2023-02-26T16:15:44;98403.38;;;1.01;nan
43814;BME280;29669;55.706;37.656;2023-02-26T16:18:17;98405.41;;;1.07;nan
43814;BME280;29669;55.706;37.656;2023-02-26T16:20:54;98406.06;;;1.09;nan
43814;BME280;29669;55.706;37.656;2023-02-26T16:26:06;98424.50;;;1.03;nan
43814;BME280;29669;55.706;37.656;2023-02-26T16:28:41;98419.91;;;0.97;nan
43814;BME280;29669;55.706;37.656;2023-02-26T16:31:21;98438.47;;;0.89;nan
43814;BME280;29669;55.706;37.656;2023-02-26T16:34:01;98431.22;;;0.85;nan
43814;BME280;29669;55.706;37.656;2023-02-26T16:36:36;98446.28;;;0.88;nan
43814;BME280;29669;55.706;37.656;2023-02-26T16:39:30;98442.91;;;0.87;nan
43814;BME280;29669;55.706;37.656;2023-02-26T16:42:09;98440.34;;;0.87;nan
43814;BME280;29669;55.706;37.656;2023-02-26T16:47:17;98444.94;;;0.84;nan
43814;BME280;29669;55.706;37.656;2023-02-26T16:49:48;98449.38;;;0.82;nan
43814;BME280;29669;55.706;37.656;2023-02-26T16:52:20;98458.22;;;0.78;nan
43814;BME280;29669;55.706;37.656;2023-02-26T16:55:02;98471.28;;;0.75;nan
43814;BME280;29669;55.706;37.656;2023-02-26T16:57:38;98468.88;;;0.73;nan
43814;BME280;29669;55.706;37.656;2023-02-26T17:00:14;98468.03;;;0.73;nan